Time,TemperatureF,DewpointF,PressureIn,WindDirection,WindDirectionDegrees,WindSpeedMPH,WindSpeedGustMPH,Humidity,HourlyPrecipIn,Conditions,Clouds,dailyrainin,SoftwareType,DateUTC
2013-10-06 00:04:00,54.5,41.3,30.10,North,0,0.0,0.0,61,0.00,,,0.00,WUHU216HW,2013-10-06 07:04:00,
2013-10-06 00:09:00,54.4,41.6,30.10,ESE,113,0.3,0.4,62,0.00,,,0.00,WUHU216HW,2013-10-06 07:09:00,
2013-10-06 00:14:00,53.8,41.1,30.10,North,0,0.0,0.0,62,0.00,,,0.00,WUHU216HW,2013-10-06 07:14:00,
2013-10-06 00:19:00,53.6,41.0,30.10,North,0,0.0,0.0,62,0.00,,,0.00,WUHU216HW,2013-10-06 07:19:00,
2013-10-06 00:24:00,53.6,41.3,30.10,North,0,0.0,0.0,63,0.00,,,0.00,WUHU216HW,2013-10-06 07:24:00,
2013-10-06 00:29:00,53.5,41.6,30.10,North,0,0.0,0.0,64,0.00,,,0.00,WUHU216HW,2013-10-06 07:29:00,
2013-10-06 00:34:00,53.5,41.6,30.10,North,0,0.0,0.0,64,0.00,,,0.00,WUHU216HW,2013-10-06 07:34:00,
2013-10-06 00:39:00,53.3,41.0,30.10,North,0,0.0,0.0,63,0.00,,,0.00,WUHU216HW,2013-10-06 07:39:00,
2013-10-06 00:44:00,52.9,41.1,30.10,North,358,0.3,0.9,64,0.00,,,0.00,WUHU216HW,2013-10-06 07:44:00,
2013-10-06 00:49:00,52.4,41.0,30.10,North,0,0.0,0.0,65,0.00,,,0.00,WUHU216HW,2013-10-06 07:49:00,
2013-10-06 00:54:00,52.2,40.8,30.10,North,0,0.0,0.0,65,0.00,,,0.00,WUHU216HW,2013-10-06 07:54:00,
2013-10-06 00:59:00,52.2,41.1,30.10,NW,325,0.4,0.7,66,0.00,,,0.00,WUHU216HW,2013-10-06 07:59:00,
2013-10-06 01:04:00,52.6,41.5,30.10,NW,315,0.3,0.4,66,0.00,,,0.00,WUHU216HW,2013-10-06 08:04:00,
2013-10-06 01:09:00,52.6,41.1,30.10,North,0,0.0,0.0,65,0.00,,,0.00,WUHU216HW,2013-10-06 08:09:00,
2013-10-06 01:14:00,52.4,41.3,30.11,NNW,338,1.1,1.1,66,0.00,,,0.00,WUHU216HW,2013-10-06 08:14:00,
2013-10-06 01:19:00,52.0,41.0,30.10,NNW,338,0.4,0.9,66,0.00,,,0.00,WUHU216HW,2013-10-06 08:19:00,
2013-10-06 01:24:00,51.8,41.2,30.11,East,91,0.6,1.3,67,0.00,,,0.00,WUHU216HW,2013-10-06 08:24:00,
2013-10-06 01:29:00,51.8,41.7,30.11,SSE,158,0.9,2.0,68,0.00,,,0.00,WUHU216HW,2013-10-06 08:29:00,
2013-10-06 01:34:00,51.7,41.5,30.11,SE,133,0.5,1.3,68,0.00,,,0.00,WUHU216HW,2013-10-06 08:34:00,
2013-10-06 01:39:00,51.7,41.0,30.11,North,0,0.0,0.0,67,0.00,,,0.00,WUHU216HW,2013-10-06 08:39:00,
2013-10-06 01:44:00,51.5,40.9,30.10,ESE,113,0.3,0.4,67,0.00,,,0.00,WUHU216HW,2013-10-06 08:44:00,
2013-10-06 01:49:00,51.3,40.7,30.11,ESE,113,0.2,0.2,67,0.00,,,0.00,WUHU216HW,2013-10-06 08:49:00,
2013-10-06 01:54:00,51.3,40.7,30.10,North,0,0.0,0.0,67,0.00,,,0.00,WUHU216HW,2013-10-06 08:54:00,
2013-10-06 01:59:00,51.3,40.7,30.10,North,0,0.0,0.0,67,0.00,,,0.00,WUHU216HW,2013-10-06 08:59:00,
2013-10-06 02:04:00,51.1,41.0,30.10,NNW,338,0.2,0.2,68,0.00,,,0.00,WUHU216HW,2013-10-06 09:04:00,
2013-10-06 02:09:00,51.1,41.0,30.10,NNW,338,0.2,0.2,68,0.00,,,0.00,WUHU216HW,2013-10-06 09:09:00,
2013-10-06 02:14:00,51.1,41.0,30.10,North,0,0.0,0.0,68,0.00,,,0.00,WUHU216HW,2013-10-06 09:14:00,
2013-10-06 02:19:00,51.1,41.0,30.10,North,0,0.0,0.0,68,0.00,,,0.00,WUHU216HW,2013-10-06 09:19:00,
2013-10-06 02:24:00,51.3,40.7,30.10,North,0,0.0,0.0,67,0.00,,,0.00,WUHU216HW,2013-10-06 09:24:00,
2013-10-06 02:29:00,51.1,40.5,30.10,North,0,0.0,0.0,67,0.00,,,0.00,WUHU216HW,2013-10-06 09:29:00,
2013-10-06 02:34:00,50.9,40.3,30.10,North,0,0.0,0.0,67,0.00,,,0.00,WUHU216HW,2013-10-06 09:34:00,
2013-10-06 02:39:00,50.8,40.2,30.10,North,0,0.0,0.0,67,0.00,,,0.00,WUHU216HW,2013-10-06 09:39:00,
2013-10-06 02:44:00,50.6,40.1,30.09,North,0,0.0,0.0,67,0.00,,,0.00,WUHU216HW,2013-10-06 09:44:00,
2013-10-06 02:49:00,50.4,39.4,30.09,North,0,0.0,0.0,66,0.00,,,0.00,WUHU216HW,2013-10-06 09:49:00,
2013-10-06 02:54:00,50.4,39.9,30.09,North,0,0.0,0.0,67,0.00,,,0.00,WUHU216HW,2013-10-06 09:54:00,
2013-10-06 02:59:00,50.4,39.9,30.09,North,0,0.0,0.0,67,0.00,,,0.00,WUHU216HW,2013-10-06 09:59:00,
2013-10-06 03:04:00,50.4,39.4,30.08,North,0,0.0,0.0,66,0.00,,,0.00,WUHU216HW,2013-10-06 10:04:00,
2013-10-06 03:09:00,50.2,39.7,30.08,North,0,0.0,0.0,67,0.00,,,0.00,WUHU216HW,2013-10-06 10:09:00,
2013-10-06 03:14:00,50.2,39.2,30.08,North,0,0.0,0.0,66,0.00,,,0.00,WUHU216HW,2013-10-06 10:14:00,
2013-10-06 03:19:00,50.0,39.5,30.08,North,0,0.0,0.0,67,0.00,,,0.00,WUHU216HW,2013-10-06 10:19:00,
2013-10-06 03:24:00,50.0,39.5,30.08,North,0,0.0,0.0,67,0.00,,,0.00,WUHU216HW,2013-10-06 10:24:00,
2013-10-06 03:29:00,49.7,39.2,30.08,North,0,0.0,0.0,67,0.00,,,0.00,WUHU216HW,2013-10-06 10:29:00,
2013-10-06 03:34:00,49.5,39.0,30.08,North,0,0.0,0.0,67,0.00,,,0.00,WUHU216HW,2013-10-06 10:34:00,
2013-10-06 03:39:00,49.3,38.8,30.08,NNW,338,0.3,0.4,67,0.00,,,0.00,WUHU216HW,2013-10-06 10:39:00,
2013-10-06 03:44:00,49.3,39.2,30.08,North,0,0.0,0.0,68,0.00,,,0.00,WUHU216HW,2013-10-06 10:44:00,
2013-10-06 03:49:00,49.3,39.2,30.08,North,0,0.0,0.0,68,0.00,,,0.00,WUHU216HW,2013-10-06 10:49:00,
2013-10-06 03:54:00,49.1,39.0,30.08,North,0,0.0,0.0,68,0.00,,,0.00,WUHU216HW,2013-10-06 10:54:00,
2013-10-06 03:59:00,49.1,39.0,30.08,North,0,0.0,0.0,68,0.00,,,0.00,WUHU216HW,2013-10-06 10:59:00,
2013-10-06 04:04:00,49.0,38.8,30.08,North,0,0.0,0.0,68,0.00,,,0.00,WUHU216HW,2013-10-06 11:04:00,
2013-10-06 04:09:00,48.8,38.6,30.08,North,0,0.0,0.0,68,0.00,,,0.00,WUHU216HW,2013-10-06 11:09:00,
2013-10-06 04:14:00,48.6,38.9,30.08,North,0,0.0,0.0,69,0.00,,,0.00,WUHU216HW,2013-10-06 11:14:00,
2013-10-06 04:19:00,48.6,38.9,30.08,North,0,0.0,0.0,69,0.00,,,0.00,WUHU216HW,2013-10-06 11:19:00,
2013-10-06 04:24:00,49.0,39.3,30.08,NNW,338,0.2,0.2,69,0.00,,,0.00,WUHU216HW,2013-10-06 11:24:00,
2013-10-06 04:29:00,48.6,38.9,30.08,NNW,338,0.2,0.2,69,0.00,,,0.00,WUHU216HW,2013-10-06 11:29:00,
2013-10-06 04:34:00,48.6,38.9,30.08,North,0,0.0,0.0,69,0.00,,,0.00,WUHU216HW,2013-10-06 11:34:00,
2013-10-06 04:39:00,48.4,38.7,30.08,NNW,338,0.2,0.2,69,0.00,,,0.00,WUHU216HW,2013-10-06 11:39:00,
2013-10-06 04:44:00,48.4,38.7,30.08,North,0,0.0,0.0,69,0.00,,,0.00,WUHU216HW,2013-10-06 11:44:00,
2013-10-06 04:49:00,48.2,38.9,30.08,North,0,0.0,0.0,70,0.00,,,0.00,WUHU216HW,2013-10-06 11:49:00,
2013-10-06 04:54:00,48.1,38.7,30.08,North,0,0.0,0.0,70,0.00,,,0.00,WUHU216HW,2013-10-06 11:54:00,
2013-10-06 04:59:00,47.9,38.9,30.08,North,0,0.0,0.0,71,0.00,,,0.00,WUHU216HW,2013-10-06 11:59:00,
2013-10-06 05:04:00,48.1,39.1,30.08,North,0,0.0,0.0,71,0.00,,,0.00,WUHU216HW,2013-10-06 12:04:00,
2013-10-06 05:09:00,48.2,39.3,30.08,North,0,0.0,0.0,71,0.00,,,0.00,WUHU216HW,2013-10-06 12:09:00,
2013-10-06 05:15:00,48.1,39.1,30.08,North,0,0.0,0.0,71,0.00,,,0.00,WUHU216HW,2013-10-06 12:15:00,
2013-10-06 05:20:00,47.9,38.5,30.08,North,0,0.0,0.0,70,0.00,,,0.00,WUHU216HW,2013-10-06 12:20:00,
2013-10-06 05:25:00,47.9,38.5,30.08,North,0,0.0,0.0,70,0.00,,,0.00,WUHU216HW,2013-10-06 12:25:00,
2013-10-06 05:30:00,47.7,38.7,30.08,North,0,0.0,0.0,71,0.00,,,0.00,WUHU216HW,2013-10-06 12:30:00,
2013-10-06 05:35:00,47.5,38.6,30.08,North,0,0.0,0.0,71,0.00,,,0.00,WUHU216HW,2013-10-06 12:35:00,
2013-10-06 05:40:00,47.5,38.6,30.08,North,0,0.0,0.0,71,0.00,,,0.00,WUHU216HW,2013-10-06 12:40:00,
2013-10-06 05:45:00,47.5,38.6,30.08,North,0,0.0,0.0,71,0.00,,,0.00,WUHU216HW,2013-10-06 12:45:00,
2013-10-06 05:50:00,47.2,38.3,30.08,North,0,0.0,0.0,71,0.00,,,0.00,WUHU216HW,2013-10-06 12:50:00,
2013-10-06 05:55:00,47.3,38.4,30.08,North,0,0.0,0.0,71,0.00,,,0.00,WUHU216HW,2013-10-06 12:55:00,
2013-10-06 06:00:00,47.3,38.4,30.08,North,0,0.0,0.0,71,0.00,,,0.00,WUHU216HW,2013-10-06 13:00:00,
2013-10-06 06:05:00,47.3,38.4,30.09,North,0,0.0,0.0,71,0.00,,,0.00,WUHU216HW,2013-10-06 13:05:00,
2013-10-06 06:10:00,47.2,38.3,30.09,North,0,0.0,0.0,71,0.00,,,0.00,WUHU216HW,2013-10-06 13:10:00,
2013-10-06 06:15:00,47.2,38.3,30.09,North,0,0.0,0.0,71,0.00,,,0.00,WUHU216HW,2013-10-06 13:15:00,
2013-10-06 06:20:00,47.0,38.1,30.09,North,0,0.0,0.0,71,0.00,,,0.00,WUHU216HW,2013-10-06 13:20:00,
2013-10-06 06:25:00,47.0,38.1,30.09,North,0,0.0,0.0,71,0.00,,,0.00,WUHU216HW,2013-10-06 13:25:00,
2013-10-06 06:30:00,47.0,38.1,30.10,North,0,0.0,0.0,71,0.00,,,0.00,WUHU216HW,2013-10-06 13:30:00,
2013-10-06 06:35:00,47.0,38.1,30.10,North,0,0.0,0.0,71,0.00,,,0.00,WUHU216HW,2013-10-06 13:35:00,
2013-10-06 06:40:00,46.8,38.3,30.10,North,0,0.0,0.0,72,0.00,,,0.00,WUHU216HW,2013-10-06 13:40:00,
2013-10-06 06:45:00,46.8,38.3,30.10,SE,135,0.3,0.4,72,0.00,,,0.00,WUHU216HW,2013-10-06 13:45:00,
2013-10-06 06:50:00,46.6,38.1,30.10,SE,135,0.3,0.4,72,0.00,,,0.00,WUHU216HW,2013-10-06 13:50:00,
2013-10-06 06:55:00,46.6,38.1,30.10,North,0,0.0,0.0,72,0.00,,,0.00,WUHU216HW,2013-10-06 13:55:00,
2013-10-06 07:00:00,46.6,38.1,30.10,North,0,0.0,0.0,72,0.00,,,0.00,WUHU216HW,2013-10-06 14:00:00,
2013-10-06 07:05:00,46.4,38.0,30.10,North,0,0.0,0.0,72,0.00,,,0.00,WUHU216HW,2013-10-06 14:05:00,
2013-10-06 07:10:00,46.4,38.0,30.10,North,0,0.0,0.0,72,0.00,,,0.00,WUHU216HW,2013-10-06 14:10:00,
2013-10-06 07:15:00,46.3,37.8,30.11,North,0,0.0,0.0,72,0.00,,,0.00,WUHU216HW,2013-10-06 14:15:00,
2013-10-06 07:20:00,46.3,38.1,30.11,North,0,0.0,0.0,73,0.00,,,0.00,WUHU216HW,2013-10-06 14:20:00,
2013-10-06 07:25:00,46.6,38.4,30.11,North,0,0.0,0.0,73,0.00,,,0.00,WUHU216HW,2013-10-06 14:25:00,
2013-10-06 07:30:00,46.6,38.4,30.11,North,0,0.0,0.0,73,0.00,,,0.00,WUHU216HW,2013-10-06 14:30:00,
2013-10-06 07:35:00,46.8,38.6,30.11,North,0,0.0,0.0,73,0.00,,,0.00,WUHU216HW,2013-10-06 14:35:00,
2013-10-06 07:40:00,47.0,38.8,30.11,North,0,0.0,0.0,73,0.00,,,0.00,WUHU216HW,2013-10-06 14:40:00,
2013-10-06 07:45:00,47.5,39.6,30.11,North,0,0.0,0.0,74,0.00,,,0.00,WUHU216HW,2013-10-06 14:45:00,
2013-10-06 07:50:00,47.9,40.0,30.12,North,0,0.0,0.0,74,0.00,,,0.00,WUHU216HW,2013-10-06 14:50:00,
2013-10-06 07:55:00,49.0,41.0,30.12,SW,214,0.8,1.1,74,0.00,,,0.00,WUHU216HW,2013-10-06 14:55:00,
2013-10-06 08:00:00,49.7,41.3,30.12,North,0,0.0,0.0,73,0.00,,,0.00,WUHU216HW,2013-10-06 15:00:00,
2013-10-06 08:05:00,50.4,41.8,30.12,West,270,0.4,0.7,72,0.00,,,0.00,WUHU216HW,2013-10-06 15:05:00,
2013-10-06 08:10:00,51.3,42.7,30.12,NW,315,0.4,0.9,72,0.00,,,0.00,WUHU216HW,2013-10-06 15:10:00,
2013-10-06 08:15:00,52.0,43.0,30.12,NW,315,0.3,0.4,71,0.00,,,0.00,WUHU216HW,2013-10-06 15:15:00,
2013-10-06 08:20:00,52.9,43.8,30.12,North,0,0.0,0.0,71,0.00,,,0.00,WUHU216HW,2013-10-06 15:20:00,
2013-10-06 08:25:00,53.8,44.3,30.12,North,0,0.0,0.0,70,0.00,,,0.00,WUHU216HW,2013-10-06 15:25:00,
2013-10-06 08:30:00,55.1,45.1,30.12,NNW,338,0.2,0.2,69,0.00,,,0.00,WUHU216HW,2013-10-06 15:30:00,
2013-10-06 08:35:00,56.2,45.4,30.12,North,355,0.4,0.9,67,0.00,,,0.00,WUHU216HW,2013-10-06 15:35:00,
2013-10-06 08:40:00,57.2,45.5,30.12,North,0,0.5,1.3,65,0.00,,,0.00,WUHU216HW,2013-10-06 15:40:00,
2013-10-06 08:45:00,58.0,45.8,30.12,West,278,0.6,1.1,64,0.00,,,0.00,WUHU216HW,2013-10-06 15:45:00,
2013-10-06 08:50:00,58.7,46.1,30.12,SW,228,0.7,1.1,63,0.00,,,0.00,WUHU216HW,2013-10-06 15:50:00,
2013-10-06 08:55:00,59.6,46.5,30.12,SW,235,0.4,0.7,62,0.00,,,0.00,WUHU216HW,2013-10-06 15:55:00,
2013-10-06 09:00:00,60.3,46.9,30.12,WSW,240,0.5,1.1,61,0.00,,,0.00,WUHU216HW,2013-10-06 16:00:00,
2013-10-06 09:05:00,61.4,47.4,30.12,SW,235,0.5,0.9,60,0.00,,,0.00,WUHU216HW,2013-10-06 16:05:00,
2013-10-06 09:10:00,62.3,47.4,30.13,North,0,0.0,0.0,58,0.00,,,0.00,WUHU216HW,2013-10-06 16:10:00,
2013-10-06 09:15:00,63.0,47.0,30.12,NW,315,0.4,0.4,56,0.00,,,0.00,WUHU216HW,2013-10-06 16:15:00,
2013-10-06 09:20:00,64.3,46.6,30.13,WSW,243,0.4,1.1,53,0.00,,,0.00,WUHU216HW,2013-10-06 16:20:00,
2013-10-06 09:25:00,65.7,46.6,30.12,SW,220,0.8,1.1,50,0.00,,,0.00,WUHU216HW,2013-10-06 16:25:00,
2013-10-06 09:30:00,66.6,46.9,30.12,East,80,0.4,0.7,49,0.00,,,0.00,WUHU216HW,2013-10-06 16:30:00,
2013-10-06 09:35:00,67.3,45.2,30.12,South,190,0.9,1.8,45,0.00,,,0.00,WUHU216HW,2013-10-06 16:35:00,
2013-10-06 09:40:00,68.2,44.8,30.12,SW,228,1.0,1.8,43,0.00,,,0.00,WUHU216HW,2013-10-06 16:40:00,
2013-10-06 09:45:00,68.9,45.5,30.12,SSE,152,0.9,1.6,43,0.00,,,0.00,WUHU216HW,2013-10-06 16:45:00,
2013-10-06 09:50:00,69.3,45.7,30.12,WSW,245,1.0,1.8,43,0.00,,,0.00,WUHU216HW,2013-10-06 16:50:00,
2013-10-06 09:55:00,69.8,46.3,30.12,West,281,0.4,1.1,43,0.00,,,0.00,WUHU216HW,2013-10-06 16:55:00,
2013-10-06 10:00:00,70.6,46.3,30.12,South,180,1.3,2.0,42,0.00,,,0.00,WUHU216HW,2013-10-06 17:00:00,
2013-10-06 10:05:00,71.5,45.9,30.12,SW,214,1.0,1.8,40,0.00,,,0.00,WUHU216HW,2013-10-06 17:05:00,
2013-10-06 10:10:00,72.0,46.5,30.12,West,269,1.0,1.8,40,0.00,,,0.00,WUHU216HW,2013-10-06 17:10:00,
2013-10-06 10:15:00,72.4,46.0,30.12,SSE,152,1.2,2.5,39,0.00,,,0.00,WUHU216HW,2013-10-06 17:15:00,
2013-10-06 10:20:00,73.1,45.9,30.12,SSE,161,1.4,2.2,38,0.00,,,0.00,WUHU216HW,2013-10-06 17:20:00,
2013-10-06 10:25:00,74.0,45.9,30.12,SSW,205,1.5,2.7,37,0.00,,,0.00,WUHU216HW,2013-10-06 17:25:00,
2013-10-06 10:30:00,74.7,46.5,30.12,SSE,164,1.7,2.5,37,0.00,,,0.00,WUHU216HW,2013-10-06 17:30:00,
2013-10-06 10:35:00,75.2,47.1,30.12,SSE,159,1.3,2.7,37,0.00,,,0.00,WUHU216HW,2013-10-06 17:35:00,
2013-10-06 10:40:00,75.8,46.0,30.12,South,171,1.5,2.0,35,0.00,,,0.00,WUHU216HW,2013-10-06 17:40:00,
2013-10-06 10:45:00,76.0,45.5,30.12,South,176,1.3,2.0,34,0.00,,,0.00,WUHU216HW,2013-10-06 17:45:00,
2013-10-06 10:50:00,76.3,45.0,30.12,South,171,1.5,2.5,33,0.00,,,0.00,WUHU216HW,2013-10-06 17:50:00,
2013-10-06 10:55:00,76.7,45.4,30.11,South,179,1.7,2.7,33,0.00,,,0.00,WUHU216HW,2013-10-06 17:55:00,
2013-10-06 11:00:00,77.2,44.3,30.11,West,266,1.5,2.7,31,0.00,,,0.00,WUHU216HW,2013-10-06 18:00:00,
2013-10-06 11:05:00,77.2,43.6,30.11,WSW,247,1.7,3.4,30,0.00,,,0.00,WUHU216HW,2013-10-06 18:05:00,
2013-10-06 11:10:00,77.6,44.6,30.11,SSW,205,1.7,2.9,31,0.00,,,0.00,WUHU216HW,2013-10-06 18:10:00,
2013-10-06 11:15:00,78.1,45.0,30.11,WSW,249,1.6,3.1,31,0.00,,,0.00,WUHU216HW,2013-10-06 18:15:00,
2013-10-06 11:20:00,78.5,44.6,30.10,South,182,1.7,3.1,30,0.00,,,0.00,WUHU216HW,2013-10-06 18:20:00,
2013-10-06 11:25:00,78.8,44.8,30.10,SW,215,1.5,2.5,30,0.00,,,0.00,WUHU216HW,2013-10-06 18:25:00,
2013-10-06 11:30:00,79.2,45.2,30.10,SW,217,1.4,2.9,30,0.00,,,0.00,WUHU216HW,2013-10-06 18:30:00,
2013-10-06 11:35:00,79.9,45.8,30.10,SW,221,1.3,2.5,30,0.00,,,0.00,WUHU216HW,2013-10-06 18:35:00,
2013-10-06 11:40:00,80.3,46.1,30.10,West,280,1.3,2.9,30,0.00,,,0.00,WUHU216HW,2013-10-06 18:40:00,
2013-10-06 11:45:00,80.8,44.5,30.09,SSW,202,1.7,3.6,28,0.00,,,0.00,WUHU216HW,2013-10-06 18:45:00,
2013-10-06 11:50:00,81.2,42.7,30.09,WSW,250,1.7,2.7,26,0.00,,,0.00,WUHU216HW,2013-10-06 18:50:00,
2013-10-06 11:55:00,81.2,42.7,30.09,WSW,238,1.3,2.5,26,0.00,,,0.00,WUHU216HW,2013-10-06 18:55:00,
2013-10-06 12:00:00,81.4,42.8,30.09,WNW,300,1.6,2.9,26,0.00,,,0.00,WUHU216HW,2013-10-06 19:00:00,
2013-10-06 12:05:00,81.5,41.9,30.09,West,275,1.9,3.6,25,0.00,,,0.00,WUHU216HW,2013-10-06 19:05:00,
2013-10-06 12:10:00,81.9,42.2,30.08,SW,235,1.0,2.2,25,0.00,,,0.00,WUHU216HW,2013-10-06 19:10:00,
2013-10-06 12:15:00,82.1,42.4,30.08,SSW,193,1.1,2.9,25,0.00,,,0.00,WUHU216HW,2013-10-06 19:15:00,
2013-10-06 12:20:00,82.8,42.9,30.08,SE,142,1.7,4.3,25,0.00,,,0.00,WUHU216HW,2013-10-06 19:20:00,
2013-10-06 12:25:00,83.0,43.1,30.08,WNW,285,2.4,3.8,25,0.00,,,0.00,WUHU216HW,2013-10-06 19:25:00,
2013-10-06 12:30:00,83.2,41.1,30.08,WNW,285,2.8,4.0,23,0.00,,,0.00,WUHU216HW,2013-10-06 19:30:00,
2013-10-06 12:35:00,83.3,40.2,30.07,WSW,258,1.7,3.8,22,0.00,,,0.00,WUHU216HW,2013-10-06 19:35:00,
2013-10-06 12:40:00,83.5,40.4,30.08,WNW,285,3.0,4.0,22,0.00,,,0.00,WUHU216HW,2013-10-06 19:40:00,
2013-10-06 12:45:00,83.9,40.7,30.07,WSW,257,1.3,4.0,22,0.00,,,0.00,WUHU216HW,2013-10-06 19:45:00,
2013-10-06 12:50:00,84.1,40.9,30.07,West,268,1.8,3.4,22,0.00,,,0.00,WUHU216HW,2013-10-06 19:50:00,
2013-10-06 12:55:00,84.6,42.4,30.07,WSW,246,1.4,3.4,23,0.00,,,0.00,WUHU216HW,2013-10-06 19:55:00,
2013-10-06 13:00:00,85.0,39.4,30.07,WNW,296,2.4,4.0,20,0.00,,,0.00,WUHU216HW,2013-10-06 20:00:00,
2013-10-06 13:05:00,85.1,40.7,30.06,NNW,330,1.6,3.4,21,0.00,,,0.00,WUHU216HW,2013-10-06 20:05:00,
2013-10-06 13:10:00,85.3,40.9,30.06,SW,233,1.3,3.4,21,0.00,,,0.00,WUHU216HW,2013-10-06 20:10:00,
2013-10-06 13:15:00,85.5,38.2,30.06,West,275,2.2,5.1,19,0.00,,,0.00,WUHU216HW,2013-10-06 20:15:00,
2013-10-06 13:20:00,85.7,38.4,30.06,SW,228,1.8,3.4,19,0.00,,,0.00,WUHU216HW,2013-10-06 20:20:00,
2013-10-06 13:25:00,85.9,38.4,30.05,West,271,3.0,4.5,19,0.00,,,0.00,WUHU216HW,2013-10-06 20:25:00,
2013-10-06 13:30:00,86.0,36.9,30.05,WNW,282,2.3,5.8,18,0.00,,,0.00,WUHU216HW,2013-10-06 20:30:00,
2013-10-06 13:35:00,86.2,37.1,30.05,WSW,256,1.4,2.2,18,0.00,,,0.00,WUHU216HW,2013-10-06 20:35:00,
2013-10-06 13:40:00,86.4,37.3,30.04,SW,221,2.3,4.0,18,0.00,,,0.00,WUHU216HW,2013-10-06 20:40:00,
2013-10-06 13:45:00,86.6,37.4,30.04,WNW,293,3.4,5.6,18,0.00,,,0.00,WUHU216HW,2013-10-06 20:45:00,
2013-10-06 13:50:00,86.4,37.3,30.04,West,259,1.7,3.4,18,0.00,,,0.00,WUHU216HW,2013-10-06 20:50:00,
2013-10-06 13:55:00,86.4,37.3,30.04,West,281,2.4,4.0,18,0.00,,,0.00,WUHU216HW,2013-10-06 20:55:00,
2013-10-06 14:00:00,86.4,37.3,30.04,West,279,3.0,5.6,18,0.00,,,0.00,WUHU216HW,2013-10-06 21:00:00,
2013-10-06 14:05:00,86.6,37.4,30.03,SSW,193,1.9,3.1,18,0.00,,,0.00,WUHU216HW,2013-10-06 21:05:00,
2013-10-06 14:10:00,86.8,35.8,30.03,WSW,258,3.2,4.7,17,0.00,,,0.00,WUHU216HW,2013-10-06 21:10:00,
2013-10-06 14:15:00,86.8,37.5,30.03,WNW,295,2.6,4.5,18,0.00,,,0.00,WUHU216HW,2013-10-06 21:15:00,
2013-10-06 14:21:00,86.9,36.0,30.03,West,272,2.0,4.3,17,0.00,,,0.00,WUHU216HW,2013-10-06 21:21:00,
2013-10-06 14:26:00,86.9,37.7,30.03,WNW,288,3.4,4.5,18,0.00,,,0.00,WUHU216HW,2013-10-06 21:26:00,
2013-10-06 14:31:00,86.9,37.7,30.03,SW,235,1.9,3.6,18,0.00,,,0.00,WUHU216HW,2013-10-06 21:31:00,
2013-10-06 14:36:00,87.1,34.4,30.03,WNW,298,2.3,4.7,16,0.00,,,0.00,WUHU216HW,2013-10-06 21:36:00,
2013-10-06 14:41:00,86.8,35.8,30.03,NW,316,2.5,3.6,17,0.00,,,0.00,WUHU216HW,2013-10-06 21:41:00,
2013-10-06 14:46:00,87.1,36.1,30.02,NW,308,1.8,3.4,17,0.00,,,0.00,WUHU216HW,2013-10-06 21:46:00,
2013-10-06 14:51:00,87.3,36.3,30.02,WNW,287,2.8,5.6,17,0.00,,,0.00,WUHU216HW,2013-10-06 21:51:00,
2013-10-06 14:56:00,87.7,34.8,30.02,WNW,284,2.5,3.6,16,0.00,,,0.00,WUHU216HW,2013-10-06 21:56:00,
2013-10-06 15:01:00,87.7,34.8,30.02,NW,308,1.4,3.4,16,0.00,,,0.00,WUHU216HW,2013-10-06 22:01:00,
2013-10-06 15:06:00,87.5,34.8,30.02,NW,317,2.1,4.5,16,0.00,,,0.00,WUHU216HW,2013-10-06 22:06:00,
2013-10-06 15:11:00,87.5,36.5,30.02,WNW,298,2.3,6.3,17,0.00,,,0.00,WUHU216HW,2013-10-06 22:11:00,
2013-10-06 15:16:00,87.3,36.3,30.02,NW,304,4.2,6.3,17,0.00,,,0.00,WUHU216HW,2013-10-06 22:16:00,
2013-10-06 15:21:00,87.3,34.6,30.02,NW,304,3.6,5.4,16,0.00,,,0.00,WUHU216HW,2013-10-06 22:21:00,
2013-10-06 15:26:00,87.5,34.8,30.02,NW,310,2.9,4.7,16,0.00,,,0.00,WUHU216HW,2013-10-06 22:26:00,
2013-10-06 15:31:00,87.7,34.8,30.02,NW,305,2.3,4.0,16,0.00,,,0.00,WUHU216HW,2013-10-06 22:31:00,
2013-10-06 15:36:00,87.5,34.8,30.01,NW,316,2.8,4.7,16,0.00,,,0.00,WUHU216HW,2013-10-06 22:36:00,
2013-10-06 15:41:00,87.5,34.8,30.01,North,355,2.2,6.3,16,0.00,,,0.00,WUHU216HW,2013-10-06 22:41:00,
2013-10-06 15:46:00,87.3,34.6,30.01,NW,305,3.1,4.9,16,0.00,,,0.00,WUHU216HW,2013-10-06 22:46:00,
2013-10-06 15:51:00,87.1,34.4,30.00,NW,304,2.8,4.0,16,0.00,,,0.00,WUHU216HW,2013-10-06 22:51:00,
2013-10-06 15:56:00,87.7,36.6,30.01,WNW,286,2.1,4.0,17,0.00,,,0.00,WUHU216HW,2013-10-06 22:56:00,
2013-10-06 16:01:00,87.5,34.8,30.00,WNW,303,3.4,4.5,16,0.00,,,0.00,WUHU216HW,2013-10-06 23:01:00,
2013-10-06 16:06:00,87.3,34.6,30.00,NW,322,2.0,4.5,16,0.00,,,0.00,WUHU216HW,2013-10-06 23:06:00,
2013-10-06 16:11:00,87.1,36.1,30.00,NW,309,1.3,3.1,17,0.00,,,0.00,WUHU216HW,2013-10-06 23:11:00,
2013-10-06 16:16:00,86.9,34.3,30.00,North,349,1.4,3.4,16,0.00,,,0.00,WUHU216HW,2013-10-06 23:16:00,
2013-10-06 16:21:00,86.8,32.4,30.00,NNW,328,1.6,4.7,15,0.00,,,0.00,WUHU216HW,2013-10-06 23:21:00,
2013-10-06 16:26:00,86.8,34.1,30.00,NW,316,2.0,4.9,16,0.00,,,0.00,WUHU216HW,2013-10-06 23:26:00,
2013-10-06 16:31:00,86.8,34.1,30.00,NW,305,2.3,4.0,16,0.00,,,0.00,WUHU216HW,2013-10-06 23:31:00,
2013-10-06 16:36:00,86.9,34.3,30.00,NW,313,2.3,4.3,16,0.00,,,0.00,WUHU216HW,2013-10-06 23:36:00,
2013-10-06 16:41:00,86.8,34.1,29.99,NNW,343,1.2,2.7,16,0.00,,,0.00,WUHU216HW,2013-10-06 23:41:00,
2013-10-06 16:46:00,86.8,34.1,29.99,NW,319,1.3,2.7,16,0.00,,,0.00,WUHU216HW,2013-10-06 23:46:00,
2013-10-06 16:51:00,86.8,34.1,29.99,North,3,0.9,2.2,16,0.00,,,0.00,WUHU216HW,2013-10-06 23:51:00,
2013-10-06 16:56:00,86.6,33.9,29.98,NNW,331,0.9,1.8,16,0.00,,,0.00,WUHU216HW,2013-10-06 23:56:00,
2013-10-06 17:01:00,86.8,34.1,29.98,NW,310,1.6,2.5,16,0.00,,,0.00,WUHU216HW,2013-10-07 00:01:00,
2013-10-06 17:06:00,86.9,36.0,29.98,NW,309,1.9,3.1,17,0.00,,,0.00,WUHU216HW,2013-10-07 00:06:00,
2013-10-06 17:11:00,86.6,33.9,29.98,NW,317,1.5,3.4,16,0.00,,,0.00,WUHU216HW,2013-10-07 00:11:00,
2013-10-06 17:16:00,86.2,32.0,29.98,NNW,336,0.8,2.0,15,0.00,,,0.00,WUHU216HW,2013-10-07 00:16:00,
2013-10-06 17:21:00,85.9,33.3,29.98,NNW,336,0.7,1.1,16,0.00,,,0.00,WUHU216HW,2013-10-07 00:21:00,
2013-10-06 17:26:00,85.7,34.9,29.98,NW,322,1.0,2.5,17,0.00,,,0.00,WUHU216HW,2013-10-07 00:26:00,
2013-10-06 17:31:00,85.5,34.7,29.98,NW,311,1.6,2.0,17,0.00,,,0.00,WUHU216HW,2013-10-07 00:31:00,
2013-10-06 17:36:00,85.5,34.7,29.97,NW,311,1.3,1.8,17,0.00,,,0.00,WUHU216HW,2013-10-07 00:36:00,
2013-10-06 17:41:00,85.3,36.4,29.97,WNW,302,1.3,2.0,18,0.00,,,0.00,WUHU216HW,2013-10-07 00:41:00,
2013-10-06 17:46:00,85.3,36.4,29.98,WNW,300,1.3,1.6,18,0.00,,,0.00,WUHU216HW,2013-10-07 00:46:00,
2013-10-06 17:51:00,85.0,36.0,29.98,NW,310,1.2,1.8,18,0.00,,,0.00,WUHU216HW,2013-10-07 00:51:00,
2013-10-06 17:56:00,84.6,37.4,29.97,NW,315,0.9,1.6,19,0.00,,,0.00,WUHU216HW,2013-10-07 00:56:00,
2013-10-06 18:01:00,84.1,37.0,29.97,NW,315,1.2,1.8,19,0.00,,,0.00,WUHU216HW,2013-10-07 01:01:00,
2013-10-06 18:06:00,83.9,38.6,29.97,NW,315,0.8,1.1,20,0.00,,,0.00,WUHU216HW,2013-10-07 01:06:00,
2013-10-06 18:11:00,83.3,39.3,29.97,NW,315,0.4,0.4,21,0.00,,,0.00,WUHU216HW,2013-10-07 01:11:00,
2013-10-06 18:16:00,82.6,40.7,29.97,North,0,0.0,0.0,23,0.00,,,0.00,WUHU216HW,2013-10-07 01:16:00,
2013-10-06 18:21:00,81.9,41.2,29.97,North,0,0.0,0.0,24,0.00,,,0.00,WUHU216HW,2013-10-07 01:21:00,
2013-10-06 18:26:00,81.2,41.7,29.97,North,0,0.0,0.0,25,0.00,,,0.00,WUHU216HW,2013-10-07 01:26:00,
2013-10-06 18:31:00,80.1,43.8,29.97,North,0,0.0,0.0,28,0.00,,,0.00,WUHU216HW,2013-10-07 01:31:00,
2013-10-06 18:36:00,79.2,43.0,29.97,North,0,0.0,0.0,28,0.00,,,0.00,WUHU216HW,2013-10-07 01:36:00,
2013-10-06 18:41:00,78.5,43.5,29.97,NNW,338,0.2,0.2,29,0.00,,,0.00,WUHU216HW,2013-10-07 01:41:00,
2013-10-06 18:46:00,77.4,43.7,29.97,NNW,338,0.3,0.4,30,0.00,,,0.00,WUHU216HW,2013-10-07 01:46:00,
2013-10-06 18:51:00,76.1,43.3,29.97,North,0,0.0,0.0,31,0.00,,,0.00,WUHU216HW,2013-10-07 01:51:00,
2013-10-06 18:56:00,74.7,41.3,29.97,NNW,338,0.3,0.7,30,0.00,,,0.00,WUHU216HW,2013-10-07 01:56:00,
2013-10-06 19:01:00,73.8,40.5,29.96,NNW,338,0.6,0.9,30,0.00,,,0.00,WUHU216HW,2013-10-07 02:01:00,
2013-10-06 19:06:00,73.4,40.1,29.97,NNW,338,0.4,0.7,30,0.00,,,0.00,WUHU216HW,2013-10-07 02:06:00,
2013-10-06 19:11:00,73.6,41.0,29.97,NNW,338,0.3,0.4,31,0.00,,,0.00,WUHU216HW,2013-10-07 02:11:00,
2013-10-06 19:16:00,73.4,40.9,29.97,NNW,338,0.5,0.7,31,0.00,,,0.00,WUHU216HW,2013-10-07 02:16:00,
2013-10-06 19:21:00,72.9,41.2,29.97,NNW,338,0.3,0.4,32,0.00,,,0.00,WUHU216HW,2013-10-07 02:21:00,
2013-10-06 19:26:00,72.4,41.5,29.97,NNW,338,0.2,0.2,33,0.00,,,0.00,WUHU216HW,2013-10-07 02:26:00,
2013-10-06 19:31:00,72.2,41.4,29.97,North,0,0.0,0.0,33,0.00,,,0.00,WUHU216HW,2013-10-07 02:31:00,
2013-10-06 19:36:00,72.0,41.2,29.97,North,0,0.0,0.0,33,0.00,,,0.00,WUHU216HW,2013-10-07 02:36:00,
2013-10-06 19:41:00,71.8,41.8,29.97,North,0,0.0,0.0,34,0.00,,,0.00,WUHU216HW,2013-10-07 02:41:00,
2013-10-06 19:46:00,70.9,41.8,29.97,North,0,0.0,0.0,35,0.00,,,0.00,WUHU216HW,2013-10-07 02:46:00,
2013-10-06 19:51:00,70.0,41.7,29.97,North,0,0.0,0.0,36,0.00,,,0.00,WUHU216HW,2013-10-07 02:51:00,
2013-10-06 19:56:00,69.5,42.0,29.97,North,0,0.0,0.0,37,0.00,,,0.00,WUHU216HW,2013-10-07 02:56:00,
2013-10-06 20:01:00,69.1,42.3,29.97,North,0,0.0,0.0,38,0.00,,,0.00,WUHU216HW,2013-10-07 03:01:00,
2013-10-06 20:06:00,68.8,42.0,29.97,North,0,0.0,0.0,38,0.00,,,0.00,WUHU216HW,2013-10-07 03:06:00,
2013-10-06 20:11:00,68.2,42.3,29.97,North,0,0.0,0.0,39,0.00,,,0.00,WUHU216HW,2013-10-07 03:11:00,
2013-10-06 20:16:00,67.7,41.8,29.97,North,0,0.0,0.0,39,0.00,,,0.00,WUHU216HW,2013-10-07 03:16:00,
2013-10-06 20:21:00,67.0,41.9,29.97,East,90,0.4,0.4,40,0.00,,,0.00,WUHU216HW,2013-10-07 03:21:00,
2013-10-06 20:26:00,66.4,41.9,29.97,North,0,0.0,0.0,41,0.00,,,0.00,WUHU216HW,2013-10-07 03:26:00,
2013-10-06 20:31:00,66.2,41.9,29.97,North,0,0.0,0.0,41,0.00,,,0.00,WUHU216HW,2013-10-07 03:31:00,
2013-10-06 20:36:00,65.7,41.3,29.97,North,0,0.0,0.0,41,0.00,,,0.00,WUHU216HW,2013-10-07 03:36:00,
2013-10-06 20:41:00,65.2,41.4,29.97,North,0,0.0,0.0,42,0.00,,,0.00,WUHU216HW,2013-10-07 03:41:00,
2013-10-06 20:46:00,64.8,41.7,29.97,North,0,0.0,0.0,43,0.00,,,0.00,WUHU216HW,2013-10-07 03:46:00,
2013-10-06 20:51:00,64.4,42.0,29.97,North,0,0.0,0.0,44,0.00,,,0.00,WUHU216HW,2013-10-07 03:51:00,
2013-10-06 20:56:00,64.3,41.8,29.97,North,0,0.0,0.0,44,0.00,,,0.00,WUHU216HW,2013-10-07 03:56:00,
2013-10-06 21:01:00,64.1,41.6,29.97,East,90,0.4,0.4,44,0.00,,,0.00,WUHU216HW,2013-10-07 04:01:00,
2013-10-06 21:06:00,63.7,41.9,29.97,North,0,0.0,0.0,45,0.00,,,0.00,WUHU216HW,2013-10-07 04:06:00,
2013-10-06 21:11:00,63.5,41.1,29.97,North,0,0.0,0.0,44,0.00,,,0.00,WUHU216HW,2013-10-07 04:11:00,
2013-10-06 21:16:00,63.4,41.5,29.97,North,349,0.3,0.4,45,0.00,,,0.00,WUHU216HW,2013-10-07 04:16:00,
2013-10-06 21:21:00,63.4,42.1,29.97,NNW,338,0.2,0.2,46,0.00,,,0.00,WUHU216HW,2013-10-07 04:21:00,
2013-10-06 21:26:00,63.2,42.5,29.97,North,0,0.0,0.0,47,0.00,,,0.00,WUHU216HW,2013-10-07 04:26:00,
2013-10-06 21:31:00,63.0,42.3,29.97,North,0,0.0,0.0,47,0.00,,,0.00,WUHU216HW,2013-10-07 04:31:00,
2013-10-06 21:36:00,62.6,42.0,29.97,NE,45,0.4,0.4,47,0.00,,,0.00,WUHU216HW,2013-10-07 04:36:00,
2013-10-06 21:41:00,62.1,42.1,29.97,NE,45,0.2,0.4,48,0.00,,,0.00,WUHU216HW,2013-10-07 04:41:00,
2013-10-06 21:46:00,61.9,41.9,29.97,North,0,0.0,0.0,48,0.00,,,0.00,WUHU216HW,2013-10-07 04:46:00,
2013-10-06 21:51:00,61.7,41.8,29.97,North,0,0.0,0.0,48,0.00,,,0.00,WUHU216HW,2013-10-07 04:51:00,
2013-10-06 21:56:00,61.2,42.5,29.97,SW,231,0.6,1.3,50,0.00,,,0.00,WUHU216HW,2013-10-07 04:56:00,
2013-10-06 22:01:00,61.0,42.3,29.97,North,0,0.0,0.0,50,0.00,,,0.00,WUHU216HW,2013-10-07 05:01:00,
2013-10-06 22:06:00,61.0,42.3,29.97,North,0,0.0,0.0,50,0.00,,,0.00,WUHU216HW,2013-10-07 05:06:00,
2013-10-06 22:11:00,60.8,42.6,29.97,North,0,0.0,0.0,51,0.00,,,0.00,WUHU216HW,2013-10-07 05:11:00,
2013-10-06 22:16:00,60.3,42.1,29.97,North,0,0.0,0.0,51,0.00,,,0.00,WUHU216HW,2013-10-07 05:16:00,
2013-10-06 22:21:00,60.1,42.4,29.97,SE,135,0.2,0.2,52,0.00,,,0.00,WUHU216HW,2013-10-07 05:21:00,
2013-10-06 22:26:00,59.9,42.3,29.97,SE,135,0.4,0.7,52,0.00,,,0.00,WUHU216HW,2013-10-07 05:26:00,
2013-10-06 22:31:00,59.8,42.1,29.97,North,0,0.0,0.0,52,0.00,,,0.00,WUHU216HW,2013-10-07 05:31:00,
2013-10-06 22:36:00,59.4,41.8,29.97,North,0,0.0,0.0,52,0.00,,,0.00,WUHU216HW,2013-10-07 05:36:00,
2013-10-06 22:41:00,59.4,41.8,29.97,North,0,0.0,0.0,52,0.00,,,0.00,WUHU216HW,2013-10-07 05:41:00,
2013-10-06 22:46:00,59.4,41.8,29.97,North,0,0.0,0.0,52,0.00,,,0.00,WUHU216HW,2013-10-07 05:46:00,
2013-10-06 22:51:00,59.6,41.5,29.97,North,0,0.0,0.0,51,0.00,,,0.00,WUHU216HW,2013-10-07 05:51:00,
2013-10-06 22:57:00,59.8,41.1,29.97,North,0,0.0,0.0,50,0.00,,,0.00,WUHU216HW,2013-10-07 05:57:00,
2013-10-06 23:02:00,59.6,41.5,29.97,North,0,0.0,0.0,51,0.00,,,0.00,WUHU216HW,2013-10-07 06:02:00,
2013-10-06 23:07:00,59.2,41.1,29.97,North,0,0.0,0.0,51,0.00,,,0.00,WUHU216HW,2013-10-07 06:07:00,
2013-10-06 23:12:00,58.9,40.8,29.97,North,0,0.0,0.0,51,0.00,,,0.00,WUHU216HW,2013-10-07 06:12:00,
2013-10-06 23:17:00,58.7,41.1,29.96,North,0,0.0,0.0,52,0.00,,,0.00,WUHU216HW,2013-10-07 06:17:00,
2013-10-06 23:22:00,58.1,41.1,29.96,North,9,0.3,0.4,53,0.00,,,0.00,WUHU216HW,2013-10-07 06:22:00,
2013-10-06 23:27:00,57.4,41.0,29.96,North,0,0.2,0.2,54,0.00,,,0.00,WUHU216HW,2013-10-07 06:27:00,
2013-10-06 23:32:00,56.9,40.4,29.96,North,0,0.0,0.0,54,0.00,,,0.00,WUHU216HW,2013-10-07 06:32:00,
2013-10-06 23:37:00,56.5,40.5,29.96,North,0,0.0,0.0,55,0.00,,,0.00,WUHU216HW,2013-10-07 06:37:00,
2013-10-06 23:42:00,56.5,41.0,29.96,North,0,0.0,0.0,56,0.00,,,0.00,WUHU216HW,2013-10-07 06:42:00,
2013-10-06 23:47:00,56.2,43.3,29.96,NNW,338,0.3,0.4,62,0.00,,,0.00,WUHU216HW,2013-10-07 06:47:00,
2013-10-06 23:52:00,56.2,41.6,29.96,NW,322,0.3,0.4,58,0.00,,,0.00,WUHU216HW,2013-10-07 06:52:00,
2013-10-06 23:57:00,56.2,41.0,29.96,NNW,338,0.3,0.4,57,0.00,,,0.00,WUHU216HW,2013-10-07 06:57:00,